Terminal Aerodrome Forecast
Issued by NWS

Home | Current Version | Previous Version | Text Only | Print | Product List | Glossary On
Versions: 1 2 3 4 5 6 7 8 9 10 11 12 13 14 15 16
000
FTUS42 KMHX 031401 AAA
TAFISO
TAF AMD
KISO 031401Z 0314/0412 08006KT P6SM -RA SCT006 BKN035
      TEMPO 0314/0316 BKN006
     FM031600 VRB05KT P6SM VCTS BKN015CB
     FM032300 02004KT P6SM VCSH OVC015
     FM040600 02004KT 5SM -RA BR OVC010
      AMD LTD TO CLD VIS AND WIND=

USA.gov is the U.S. government's official web portal to all federal, state and local government web resources and services.